createdAt,value
2019-04-16T00:00:15.342Z,99028.93
2019-04-16T00:02:53.062Z,99027.52
2019-04-16T00:05:32.101Z,99025.78
2019-04-16T00:08:26.455Z,99022.20
2019-04-16T00:11:11.488Z,99017.95
2019-04-16T00:13:50.867Z,99022.86
2019-04-16T00:16:22.567Z,99020.61
2019-04-16T00:18:58.032Z,99014.84
2019-04-16T00:21:46.553Z,99019.24
2019-04-16T00:24:28.819Z,99010.70
2019-04-16T00:27:00.727Z,99009.41
2019-04-16T00:29:32.992Z,99016.77
2019-04-16T00:32:15.265Z,99013.66
2019-04-16T00:34:47.028Z,99014.84
2019-04-16T00:37:21.344Z,99013.10
2019-04-16T00:39:55.577Z,99008.74
2019-04-16T00:42:25.855Z,99007.19
2019-04-16T00:44:57.586Z,99009.41
2019-04-16T00:47:29.442Z,99011.59
2019-04-16T00:50:01.155Z,99009.59
2019-04-16T00:52:36.649Z,99010.12
2019-04-16T00:55:06.989Z,99009.34
2019-04-16T00:57:38.679Z,99005.65
2019-04-16T01:00:11.539Z,99001.91
2019-04-16T01:02:43.124Z,98998.85
2019-04-16T01:05:14.784Z,98998.30
2019-04-16T01:07:46.599Z,99000.92
2019-04-16T01:10:18.548Z,99003.73
2019-04-16T01:12:50.601Z,99003.84
2019-04-16T01:15:22.582Z,99004.47
2019-04-16T01:17:54.115Z,99007.58
2019-04-16T01:20:26.917Z,99003.17
2019-04-16T01:22:58.599Z,99004.02
2019-04-16T01:25:31.262Z,99008.39
2019-04-16T01:28:04.775Z,99004.19
2019-04-16T01:30:46.891Z,99007.03
2019-04-16T01:33:25.284Z,99017.53
2019-04-16T01:36:06.681Z,99009.00
2019-04-16T01:39:14.731Z,99013.14
2019-04-16T01:41:33.589Z,99015.80
2019-04-16T01:44:05.359Z,99011.59
2019-04-16T01:46:37.125Z,99014.52
2019-04-16T01:49:10.250Z,99016.92
2019-04-16T01:51:44.647Z,99023.23
2019-04-16T01:54:16.064Z,99018.98
2019-04-16T01:56:48.079Z,99018.39
2019-04-16T01:59:19.980Z,99020.66
2019-04-16T02:01:51.632Z,99020.66
2019-04-16T02:04:24.246Z,99016.11
2019-04-16T02:06:57.313Z,99010.82
2019-04-16T02:09:34.152Z,99015.98
2019-04-16T02:12:02.846Z,99017.37
2019-04-16T02:14:34.504Z,99016.84
2019-04-16T02:17:06.480Z,99016.75
2019-04-16T02:19:38.084Z,99025.59
2019-04-16T02:22:12.572Z,99016.39
2019-04-16T02:24:43.212Z,99012.86
2019-04-16T02:27:14.915Z,99016.59
2019-04-16T02:29:49.449Z,99016.94
2019-04-16T02:32:21.311Z,99017.95
2019-04-16T02:35:02.762Z,99009.16
2019-04-16T02:37:36.588Z,99008.64
2019-04-16T02:40:18.305Z,99001.78
2019-04-16T02:42:48.190Z,99017.58
2019-04-16T02:45:24.576Z,99014.86
2019-04-16T02:47:56.524Z,99019.25
2019-04-16T02:50:40.191Z,99015.38
2019-04-16T02:53:29.489Z,99026.00
2019-04-16T02:56:38.667Z,99019.30
2019-04-16T02:59:29.574Z,99021.33
2019-04-16T03:02:22.693Z,99016.73
2019-04-16T03:04:59.264Z,99011.13
2019-04-16T03:07:32.758Z,99005.84
2019-04-16T03:10:04.884Z,99007.47
2019-04-16T03:12:36.759Z,99000.00
2019-04-16T03:15:08.775Z,98999.05
2019-04-16T03:17:44.638Z,99000.34
2019-04-16T03:20:20.940Z,99004.83
2019-04-16T03:22:54.452Z,99002.64
2019-04-16T03:25:26.321Z,98997.88
2019-04-16T03:27:58.116Z,99003.39
2019-04-16T03:30:29.893Z,99003.61
2019-04-16T03:33:10.400Z,98994.30
2019-04-16T03:35:35.249Z,98998.67
2019-04-16T03:38:06.839Z,99003.42
2019-04-16T03:40:38.891Z,98990.75
2019-04-16T03:43:10.571Z,98998.48
2019-04-16T03:45:42.327Z,98990.24
2019-04-16T03:48:14.143Z,98999.71
2019-04-16T03:50:46.202Z,98992.38
2019-04-16T03:53:18.467Z,98994.46
2019-04-16T03:55:50.340Z,98993.52
2019-04-16T03:58:22.121Z,98996.09
2019-04-16T04:00:54.058Z,98999.96
2019-04-16T04:03:26.822Z,99002.55
2019-04-16T04:05:58.866Z,99001.41
2019-04-16T04:08:30.582Z,98998.05
2019-04-16T04:11:02.237Z,98991.69
2019-04-16T04:13:34.234Z,98998.20
2019-04-16T04:16:06.343Z,98999.08
2019-04-16T04:18:42.943Z,99002.23
2019-04-16T04:21:11.647Z,98995.21
2019-04-16T04:23:43.736Z,98996.56
2019-04-16T04:26:15.873Z,98999.99
2019-04-16T04:28:53.824Z,99004.67
2019-04-16T04:31:25.956Z,99003.01
2019-04-16T04:34:09.967Z,99002.51
2019-04-16T04:36:41.335Z,99004.67
2019-04-16T04:39:15.675Z,99000.52
2019-04-16T04:41:46.844Z,99010.17
2019-04-16T04:44:21.791Z,99009.09
2019-04-16T04:46:53.880Z,99003.94
2019-04-16T04:49:32.478Z,99013.46
2019-04-16T04:52:04.305Z,99014.69
2019-04-16T04:54:42.203Z,99015.57
2019-04-16T04:57:14.216Z,99024.94
2019-04-16T04:59:52.271Z,99029.16
2019-04-16T05:02:24.212Z,99034.25
2019-04-16T05:05:24.731Z,99040.11
2019-04-16T05:07:52.729Z,99040.41
2019-04-16T05:10:24.957Z,99051.30
2019-04-16T05:12:57.031Z,99052.08
2019-04-16T05:15:29.449Z,99051.62
2019-04-16T05:18:02.130Z,99054.66
2019-04-16T05:20:34.013Z,99060.59
2019-04-16T05:23:08.963Z,99067.36
2019-04-16T05:25:41.417Z,99065.38
2019-04-16T05:28:13.537Z,99067.80
2019-04-16T05:30:52.185Z,99070.62
2019-04-16T05:33:25.032Z,99072.08
2019-04-16T05:36:04.221Z,99073.75
2019-04-16T05:38:36.220Z,99076.20
2019-04-16T05:41:22.298Z,99085.12
2019-04-16T05:43:52.209Z,99081.41
2019-04-16T05:46:24.271Z,99091.97
2019-04-16T05:48:56.263Z,99087.23
2019-04-16T05:51:42.348Z,99090.25
2019-04-16T05:54:34.328Z,99090.52
2019-04-16T05:57:08.236Z,99098.73
2019-04-16T05:59:40.226Z,99103.59
2019-04-16T06:02:18.709Z,99105.17
2019-04-16T06:04:55.617Z,99102.70
2019-04-16T06:07:24.816Z,99098.16
2019-04-16T06:09:56.744Z,99111.41
2019-04-16T06:12:39.592Z,99112.66
2019-04-16T06:15:22.448Z,99113.33
2019-04-16T06:18:18.291Z,99115.42
2019-04-16T06:20:55.816Z,99108.05
2019-04-16T06:23:38.798Z,99113.05
2019-04-16T06:26:30.088Z,99120.52
2019-04-16T06:29:18.331Z,99123.46
2019-04-16T06:32:01.829Z,99127.08
2019-04-16T06:34:53.173Z,99118.61
2019-04-16T06:38:00.343Z,99117.53
2019-04-16T06:40:38.741Z,99114.01
2019-04-16T06:43:26.277Z,99110.06
2019-04-16T06:46:26.180Z,99113.93
2019-04-16T06:49:19.786Z,99115.61
2019-04-16T06:52:03.589Z,99118.58
2019-04-16T06:54:53.176Z,99119.98
2019-04-16T06:57:43.068Z,99118.04
2019-04-16T07:00:35.034Z,99112.23
2019-04-16T07:03:40.619Z,99116.34
2019-04-16T07:06:29.948Z,99114.03
2019-04-16T07:09:25.619Z,99116.29
2019-04-16T07:11:56.854Z,99126.95
2019-04-16T07:14:28.618Z,99120.14
2019-04-16T07:17:00.823Z,99117.97
2019-04-16T07:19:32.553Z,99125.06
2019-04-16T07:22:05.349Z,99123.33
2019-04-16T07:24:41.278Z,99122.98
2019-04-16T07:27:19.612Z,99119.81
2019-04-16T07:30:05.150Z,99119.28
2019-04-16T07:32:47.715Z,99118.14
2019-04-16T07:35:38.365Z,99123.95
2019-04-16T07:38:16.682Z,99129.64
2019-04-16T07:41:10.768Z,99129.80
2019-04-16T07:44:04.489Z,99120.29
2019-04-16T07:47:04.585Z,99123.59
2019-04-16T07:50:01.502Z,99120.95
2019-04-16T07:52:49.409Z,99123.95
2019-04-16T07:55:39.645Z,99118.89
2019-04-16T07:58:12.446Z,99112.94
2019-04-16T08:01:01.834Z,99109.81
2019-04-16T08:03:33.701Z,99114.05
2019-04-16T08:06:05.744Z,99106.80
2019-04-16T08:08:37.489Z,99110.64
2019-04-16T08:11:23.023Z,99109.05
2019-04-16T08:13:54.499Z,99113.00
2019-04-16T08:16:30.035Z,99112.80
2019-04-16T08:19:02.212Z,99117.53
2019-04-16T08:21:37.408Z,99110.06
2019-04-16T08:24:14.727Z,99103.94
2019-04-16T08:26:47.012Z,99106.80
2019-04-16T08:29:19.144Z,99103.63
2019-04-16T08:31:57.079Z,99109.57
2019-04-16T08:34:30.189Z,99107.65
2019-04-16T08:37:10.316Z,99104.53
2019-04-16T08:39:42.062Z,99106.56
2019-04-16T08:42:24.158Z,99110.08
2019-04-16T08:44:53.298Z,99108.94
2019-04-16T08:47:32.314Z,99096.84
2019-04-16T08:50:06.142Z,99102.60
2019-04-16T08:52:41.859Z,99096.63
2019-04-16T08:55:12.697Z,99094.02
2019-04-16T08:57:46.900Z,99085.93
2019-04-16T09:00:19.582Z,99091.66
2019-04-16T09:03:04.293Z,99087.14
2019-04-16T09:05:41.334Z,99080.23
2019-04-16T09:08:28.015Z,99076.03
2019-04-16T09:11:03.389Z,99076.12
2019-04-16T09:13:41.131Z,99066.95
2019-04-16T09:16:12.853Z,99070.45
2019-04-16T09:18:53.133Z,99064.17
2019-04-16T09:21:36.736Z,99063.14
2019-04-16T09:24:25.527Z,99063.85
2019-04-16T09:27:07.009Z,99062.44
2019-04-16T09:30:00.873Z,99067.09
2019-04-16T09:32:48.976Z,99066.88
2019-04-16T09:35:28.281Z,99065.64
2019-04-16T09:38:22.096Z,99067.18
2019-04-16T09:41:16.881Z,99052.80
2019-04-16T09:43:53.826Z,99063.52
2019-04-16T09:46:48.816Z,99051.20
2019-04-16T09:48:56.959Z,99058.63
2019-04-16T09:51:30.835Z,99059.09
2019-04-16T09:54:03.358Z,99059.25
2019-04-16T09:56:35.503Z,99058.72
2019-04-16T09:59:18.966Z,99054.55
2019-04-16T10:01:56.517Z,99052.67
2019-04-16T10:04:28.399Z,99055.36
2019-04-16T10:07:00.228Z,99061.26
2019-04-16T10:09:34.350Z,99051.84
2019-04-16T10:12:07.759Z,99064.84
2019-04-16T10:14:40.614Z,99055.83
2019-04-16T10:17:12.228Z,99054.47
2019-04-16T10:19:44.068Z,99060.53
2019-04-16T10:22:16.244Z,99045.61
2019-04-16T10:25:06.104Z,99048.84
2019-04-16T10:27:42.898Z,99047.23
2019-04-16T10:30:51.698Z,99041.68
2019-04-16T10:33:23.761Z,99040.79
2019-04-16T10:36:04.668Z,99039.55
2019-04-16T10:38:56.404Z,99040.77
2019-04-16T10:41:49.901Z,99041.30
2019-04-16T10:44:43.260Z,99036.57
2019-04-16T10:47:43.061Z,99034.81
2019-04-16T10:50:28.129Z,99034.28
2019-04-16T10:53:07.907Z,99042.94
2019-04-16T10:55:50.667Z,99044.52
2019-04-16T10:58:40.036Z,99036.34
2019-04-16T11:01:21.503Z,99033.18
2019-04-16T11:04:17.706Z,99029.58
2019-04-16T11:06:51.133Z,99028.93
2019-04-16T11:09:22.588Z,99029.12
2019-04-16T11:11:54.523Z,99037.00
2019-04-16T11:14:26.463Z,99031.23
2019-04-16T11:16:58.479Z,99023.97
2019-04-16T11:19:30.176Z,99022.10
2019-04-16T11:22:04.018Z,99017.17
2019-04-16T11:24:36.521Z,99009.09
2019-04-16T11:27:09.779Z,99015.16
2019-04-16T11:29:42.715Z,99020.91
2019-04-16T11:32:16.480Z,99010.46
2019-04-16T11:34:49.363Z,99014.73
2019-04-16T11:37:21.379Z,99011.56
2019-04-16T11:39:53.542Z,99011.19
2019-04-16T11:42:25.636Z,99014.97
2019-04-16T11:44:57.452Z,99013.48
2019-04-16T11:47:33.799Z,99003.05
2019-04-16T11:50:03.289Z,98999.46
2019-04-16T11:52:35.499Z,98999.13
2019-04-16T11:55:07.385Z,98999.41
2019-04-16T11:57:39.282Z,98993.63
2019-04-16T12:00:14.462Z,98999.42
2019-04-16T12:03:04.657Z,98993.41
2019-04-16T12:05:54.469Z,98993.45
2019-04-16T12:08:54.759Z,98986.31
2019-04-16T12:11:45.591Z,98989.14
2019-04-16T12:14:45.542Z,98986.62
2019-04-16T12:17:29.671Z,98989.25
2019-04-16T12:20:32.680Z,98982.66
2019-04-16T12:23:16.418Z,98981.00
2019-04-16T12:26:10.890Z,98978.81
2019-04-16T12:29:11.695Z,98973.80
2019-04-16T12:32:20.553Z,98970.48
2019-04-16T12:35:18.658Z,98962.43
2019-04-16T12:38:17.977Z,98960.14
2019-04-16T12:40:57.694Z,98961.67
2019-04-16T12:43:36.391Z,98962.41
2019-04-16T12:46:22.761Z,98948.67
2019-04-16T12:49:19.520Z,98941.08
2019-04-16T12:51:55.456Z,98948.36
2019-04-16T12:54:44.869Z,98953.27
2019-04-16T12:57:30.048Z,98943.53
2019-04-16T13:00:26.032Z,98938.88
2019-04-16T13:03:16.368Z,98941.84
2019-04-16T13:06:12.537Z,98935.45
2019-04-16T13:09:02.926Z,98926.42
2019-04-16T13:11:58.969Z,98929.62
2019-04-16T13:14:59.833Z,98926.37
2019-04-16T13:17:47.908Z,98913.83
2019-04-16T13:20:38.323Z,98928.66
2019-04-16T13:23:30.014Z,98916.98
2019-04-16T13:26:11.817Z,98910.13
2019-04-16T13:28:42.163Z,98911.13
2019-04-16T13:31:14.938Z,98905.86
2019-04-16T13:33:47.206Z,98903.74
2019-04-16T13:36:20.091Z,98906.61
2019-04-16T13:38:57.519Z,98899.91
2019-04-16T13:41:30.451Z,98894.77
2019-04-16T13:44:09.245Z,98887.83
2019-04-16T13:46:41.711Z,98890.52
2019-04-16T13:49:33.993Z,98901.28
2019-04-16T13:52:06.246Z,98886.66
2019-04-16T13:54:56.151Z,98889.53
2019-04-16T13:57:31.617Z,98890.98
2019-04-16T14:00:12.983Z,98894.33
2019-04-16T14:02:56.370Z,98887.33
2019-04-16T14:05:28.960Z,98882.22
2019-04-16T14:08:05.539Z,98884.31
2019-04-16T14:10:37.969Z,98887.91
2019-04-16T14:13:18.147Z,98866.20
2019-04-16T14:15:50.106Z,98881.05
2019-04-16T14:18:26.101Z,98879.77
2019-04-16T14:20:58.424Z,98889.31
2019-04-16T14:23:38.545Z,98879.08
2019-04-16T14:26:10.419Z,98887.59
2019-04-16T14:28:56.729Z,98883.41
2019-04-16T14:31:28.211Z,98878.48
2019-04-16T14:34:12.307Z,98886.01
2019-04-16T14:36:45.109Z,98897.27
2019-04-16T14:39:27.164Z,98896.95
2019-04-16T14:41:58.931Z,98915.14
2019-04-16T14:44:37.060Z,98903.63
2019-04-16T14:47:08.971Z,98909.63
2019-04-16T14:49:40.723Z,98904.55
2019-04-16T14:52:12.669Z,98914.61
2019-04-16T14:55:06.783Z,98915.08
2019-04-16T14:57:57.690Z,98920.52
2019-04-16T15:00:57.374Z,98924.73
2019-04-16T15:03:43.289Z,98955.86
2019-04-16T15:06:36.532Z,98955.02
2019-04-16T15:09:20.118Z,98951.99
2019-04-16T15:12:19.785Z,98960.50
2019-04-16T15:15:08.781Z,98964.64
2019-04-16T15:18:00.831Z,98965.22
2019-04-16T15:21:03.162Z,98966.19
2019-04-16T15:23:52.882Z,98966.42
2019-04-16T15:26:43.415Z,98973.88
2019-04-16T15:29:20.839Z,98983.75
2019-04-16T15:32:05.554Z,98987.37
2019-04-16T15:34:43.022Z,98995.52
2019-04-16T15:37:25.855Z,99001.38
2019-04-16T15:40:06.968Z,99006.84
2019-04-16T15:42:53.252Z,99009.89
2019-04-16T15:45:44.264Z,99021.44
2019-04-16T15:48:38.143Z,99022.33
2019-04-16T15:51:31.946Z,99025.16
2019-04-16T15:54:24.471Z,99032.02
2019-04-16T15:57:21.269Z,99028.55
2019-04-16T15:59:59.707Z,99033.82
2019-04-16T16:03:06.160Z,99027.66
2019-04-16T16:05:44.201Z,99026.01
2019-04-16T16:08:26.896Z,99023.08
2019-04-16T16:11:02.476Z,99024.66
2019-04-16T16:13:35.112Z,99019.77
2019-04-16T16:16:10.120Z,99024.22
2019-04-16T16:18:41.387Z,99021.19
2019-04-16T16:21:14.195Z,99021.66
2019-04-16T16:23:46.916Z,99019.50
2019-04-16T16:26:19.894Z,99023.65
2019-04-16T16:28:51.988Z,99019.20
2019-04-16T16:31:24.717Z,99023.89
2019-04-16T16:33:58.899Z,99020.21
2019-04-16T16:36:30.735Z,99011.25
2019-04-16T16:39:03.658Z,99012.70
2019-04-16T16:41:35.771Z,99013.77
2019-04-16T16:44:07.809Z,99010.06
2019-04-16T16:46:58.395Z,99016.53
2019-04-16T16:49:32.480Z,99008.52
2019-04-16T16:52:33.320Z,99010.57
2019-04-16T16:55:16.362Z,99008.95
2019-04-16T16:57:53.581Z,99003.85
2019-04-16T17:00:43.860Z,99014.59
2019-04-16T17:03:23.915Z,99019.84
2019-04-16T17:05:57.074Z,99019.66
2019-04-16T17:08:31.013Z,99025.73
2019-04-16T17:11:16.291Z,99029.08
2019-04-16T17:13:37.167Z,99027.52
2019-04-16T17:16:13.255Z,99022.66
2019-04-16T17:18:45.407Z,99028.16
2019-04-16T17:21:17.348Z,99031.37
2019-04-16T17:23:49.823Z,99029.83
2019-04-16T17:26:22.940Z,99037.58
2019-04-16T17:28:55.443Z,99033.99
2019-04-16T17:31:27.905Z,99039.14
2019-04-16T17:34:02.153Z,99038.28
2019-04-16T17:36:37.885Z,99042.09
2019-04-16T17:39:11.644Z,99042.79
2019-04-16T17:41:50.021Z,99053.41
2019-04-16T17:44:47.169Z,99047.33
2019-04-16T17:47:40.940Z,99051.61
2019-04-16T17:50:39.339Z,99056.41
2019-04-16T17:53:26.217Z,99057.95
2019-04-16T17:56:21.039Z,99059.48
2019-04-16T17:58:59.343Z,99055.33
2019-04-16T18:01:50.397Z,99062.83
2019-04-16T18:04:44.481Z,99062.20
2019-04-16T18:07:36.650Z,99065.67
2019-04-16T18:10:22.787Z,99063.05
2019-04-16T18:13:34.089Z,99065.52
2019-04-16T18:16:23.714Z,99063.11
2019-04-16T18:19:13.140Z,99062.01
2019-04-16T18:21:52.163Z,99064.28
2019-04-16T18:24:42.716Z,99067.49
2019-04-16T18:27:37.763Z,99075.57
2019-04-16T18:30:38.841Z,99077.47
2019-04-16T18:33:30.441Z,99078.57
2019-04-16T18:36:14.185Z,99090.36
2019-04-16T18:39:05.248Z,99091.44
2019-04-16T18:41:43.751Z,99089.98
2019-04-16T18:44:33.602Z,99087.45
2019-04-16T18:47:30.912Z,99093.20
2019-04-16T18:50:06.421Z,99094.11
2019-04-16T18:52:38.841Z,99092.08
2019-04-16T18:55:11.981Z,99108.53
2019-04-16T18:57:47.919Z,99101.18
2019-04-16T19:00:45.367Z,99109.42
2019-04-16T19:03:18.190Z,99106.30
2019-04-16T19:05:50.206Z,99104.98
2019-04-16T19:08:23.329Z,99102.56
2019-04-16T19:10:55.364Z,99109.35
2019-04-16T19:13:27.824Z,99117.47
2019-04-16T19:16:01.927Z,99118.38
2019-04-16T19:18:34.817Z,99122.19
2019-04-16T19:21:11.927Z,99124.27
2019-04-16T19:23:41.698Z,99125.26
2019-04-16T19:26:14.182Z,99129.51
2019-04-16T19:28:55.477Z,99134.72
2019-04-16T19:31:27.971Z,99131.69
2019-04-16T19:34:00.457Z,99141.81
2019-04-16T19:36:32.782Z,99138.34
2019-04-16T19:39:15.412Z,99144.48
2019-04-16T19:41:47.647Z,99139.21
2019-04-16T19:44:20.032Z,99141.88
2019-04-16T19:46:54.243Z,99144.69
2019-04-16T19:49:44.166Z,99143.14
2019-04-16T19:52:17.278Z,99140.99
2019-04-16T19:54:50.125Z,99144.34
2019-04-16T19:57:22.868Z,99144.45
2019-04-16T19:59:56.796Z,99150.12
2019-04-16T20:02:32.978Z,99150.12
2019-04-16T20:05:05.485Z,99148.73
2019-04-16T20:07:37.815Z,99144.45
2019-04-16T20:10:16.650Z,99153.72
2019-04-16T20:12:48.782Z,99152.87
2019-04-16T20:15:21.641Z,99156.09
2019-04-16T20:17:54.084Z,99149.55
2019-04-16T20:20:31.485Z,99151.66
2019-04-16T20:23:03.951Z,99158.68
2019-04-16T20:25:42.867Z,99157.16
2019-04-16T20:28:16.280Z,99156.83
2019-04-16T20:31:03.245Z,99153.03
2019-04-16T20:33:33.356Z,99157.36
2019-04-16T20:36:08.802Z,99157.27
2019-04-16T20:38:46.270Z,99164.02
2019-04-16T20:41:18.982Z,99163.56
2019-04-16T20:43:51.022Z,99160.69
2019-04-16T20:46:29.452Z,99159.00
2019-04-16T20:49:09.624Z,99163.23
2019-04-16T20:51:39.257Z,99151.88
2019-04-16T20:54:13.741Z,99161.02
2019-04-16T20:56:53.271Z,99165.36
2019-04-16T20:59:24.296Z,99162.28
2019-04-16T21:01:59.628Z,99162.39
2019-04-16T21:04:32.333Z,99160.73
2019-04-16T21:07:14.347Z,99165.04
2019-04-16T21:09:43.706Z,99165.34
2019-04-16T21:12:17.881Z,99165.80
2019-04-16T21:14:50.938Z,99170.39
2019-04-16T21:17:32.054Z,99164.50
2019-04-16T21:20:06.085Z,99168.51
2019-04-16T21:22:41.483Z,99163.94
2019-04-16T21:25:13.982Z,99168.63
2019-04-16T21:28:07.862Z,99163.37
2019-04-16T21:30:43.322Z,99171.58
2019-04-16T21:33:23.904Z,99165.06
2019-04-16T21:36:03.069Z,99164.89
2019-04-16T21:38:49.975Z,99160.50
2019-04-16T21:41:22.318Z,99162.44
2019-04-16T21:43:54.496Z,99162.41
2019-04-16T21:46:26.827Z,99154.42
2019-04-16T21:49:00.876Z,99158.13
2019-04-16T21:51:33.108Z,99163.45
2019-04-16T21:54:06.856Z,99157.00
2019-04-16T21:56:39.747Z,99157.53
2019-04-16T21:59:12.750Z,99160.50
2019-04-16T22:01:47.248Z,99159.20
2019-04-16T22:04:19.418Z,99163.66
2019-04-16T22:06:52.619Z,99161.41
2019-04-16T22:09:25.127Z,99159.35
2019-04-16T22:11:57.417Z,99162.77
2019-04-16T22:14:29.597Z,99163.88
2019-04-16T22:17:04.181Z,99160.23
2019-04-16T22:19:35.377Z,99166.48
2019-04-16T22:22:07.707Z,99165.95
2019-04-16T22:24:39.687Z,99166.05
2019-04-16T22:27:11.833Z,99165.75
2019-04-16T22:29:56.434Z,99167.80
2019-04-16T22:32:30.854Z,99163.55
2019-04-16T22:35:02.377Z,99163.84
2019-04-16T22:37:34.380Z,99164.50
2019-04-16T22:40:29.288Z,99166.62
2019-04-16T22:43:19.099Z,99167.69
2019-04-16T22:46:05.393Z,99164.93
2019-04-16T22:48:37.116Z,99158.53
2019-04-16T22:51:10.117Z,99153.47
2019-04-16T22:53:42.491Z,99160.84
2019-04-16T22:56:14.074Z,99162.23
2019-04-16T22:58:49.592Z,99162.64
2019-04-16T23:01:23.280Z,99162.87
2019-04-16T23:03:55.233Z,99162.46
2019-04-16T23:06:27.321Z,99164.16
2019-04-16T23:08:59.497Z,99168.80
2019-04-16T23:11:31.285Z,99167.19
2019-04-16T23:14:03.998Z,99171.73
2019-04-16T23:16:36.073Z,99171.84
2019-04-16T23:19:07.981Z,99168.42
2019-04-16T23:21:42.542Z,99165.94
2019-04-16T23:24:13.473Z,99171.52
2019-04-16T23:26:45.484Z,99166.80
2019-04-16T23:29:17.575Z,99168.16
2019-04-16T23:31:57.955Z,99166.52
2019-04-16T23:34:29.876Z,99163.63
2019-04-16T23:37:04.905Z,99168.15
2019-04-16T23:39:39.804Z,99161.11
2019-04-16T23:42:18.846Z,99160.25
2019-04-16T23:45:07.782Z,99157.81
2019-04-16T23:48:15.500Z,99165.98
2019-04-16T23:50:53.485Z,99161.77
2019-04-16T23:53:53.786Z,99162.40
2019-04-16T23:56:32.546Z,99162.40
2019-04-16T23:59:15.137Z,99162.25
